createdAt,value
2022-10-17T00:00:49.095Z,6.30
2022-10-17T00:03:16.938Z,5.78
2022-10-17T00:05:47.022Z,6.38
2022-10-17T00:08:16.383Z,5.47
2022-10-17T00:10:44.379Z,7.55
2022-10-17T00:13:13.565Z,7.40
2022-10-17T00:15:45.146Z,6.45
2022-10-17T00:18:12.462Z,8.20
2022-10-17T00:20:39.778Z,6.45
2022-10-17T00:23:07.009Z,7.40
2022-10-17T00:25:34.494Z,8.38
2022-10-17T00:28:01.833Z,11.02
2022-10-17T00:30:29.236Z,8.75
2022-10-17T00:32:57.033Z,8.15
2022-10-17T00:35:24.383Z,10.27
2022-10-17T00:37:51.641Z,11.88
2022-10-17T00:40:19.010Z,10.65
2022-10-17T00:42:47.834Z,9.82
2022-10-17T00:45:20.535Z,8.80
2022-10-17T00:48:01.661Z,7.20
2022-10-17T00:50:30.730Z,10.30
2022-10-17T00:53:01.846Z,8.18
2022-10-17T00:55:33.601Z,7.25
2022-10-17T00:58:03.627Z,16.98
2022-10-17T01:00:31.495Z,9.23
2022-10-17T01:02:58.815Z,10.52
2022-10-17T01:05:26.778Z,11.48
2022-10-17T01:07:56.088Z,10.38
2022-10-17T01:10:30.676Z,9.60
2022-10-17T01:13:25.240Z,9.98
2022-10-17T01:16:32.611Z,9.57
2022-10-17T01:19:27.706Z,12.40
2022-10-17T01:22:24.220Z,14.70
2022-10-17T01:27:44.072Z,16.23
2022-10-17T01:30:32.209Z,16.15
2022-10-17T01:33:09.667Z,20.70
2022-10-17T01:35:43.906Z,17.90
2022-10-17T01:38:19.313Z,15.05
2022-10-17T01:41:17.227Z,14.35
2022-10-17T01:43:59.862Z,13.70
2022-10-17T01:46:37.720Z,14.95
2022-10-17T01:49:08.839Z,13.18
2022-10-17T01:51:45.456Z,16.63
2022-10-17T01:54:21.845Z,10.65
2022-10-17T01:56:53.150Z,12.38
2022-10-17T01:59:25.288Z,9.93
2022-10-17T02:01:55.857Z,11.80
2022-10-17T02:04:24.218Z,8.68
2022-10-17T02:06:51.559Z,11.23
2022-10-17T02:09:24.501Z,8.02
2022-10-17T02:12:18.315Z,7.13
2022-10-17T02:15:05.498Z,5.85
2022-10-17T02:17:43.263Z,6.20
2022-10-17T02:20:25.516Z,7.80
2022-10-17T02:23:07.478Z,5.30
2022-10-17T02:25:49.202Z,4.60
2022-10-17T02:28:32.530Z,6.32
2022-10-17T02:31:23.127Z,5.05
2022-10-17T02:33:57.089Z,8.45
2022-10-17T02:36:29.450Z,7.22
2022-10-17T02:38:59.175Z,8.73
2022-10-17T02:43:57.626Z,9.23
2022-10-17T02:46:29.043Z,10.75
2022-10-17T02:49:04.576Z,5.28
2022-10-17T02:52:02.058Z,4.88
2022-10-17T02:54:39.478Z,5.70
2022-10-17T02:57:11.055Z,11.82
2022-10-17T02:59:41.778Z,6.32
2022-10-17T03:02:09.226Z,7.88
2022-10-17T03:04:36.653Z,13.80
2022-10-17T03:07:04.046Z,11.35
2022-10-17T03:09:31.413Z,14.60
2022-10-17T03:11:58.758Z,8.50
2022-10-17T03:14:26.120Z,9.18
2022-10-17T03:16:53.483Z,17.05
2022-10-17T03:19:20.925Z,11.55
2022-10-17T03:21:48.649Z,10.68
2022-10-17T03:24:16.057Z,14.90
2022-10-17T03:26:43.470Z,13.18
2022-10-17T03:29:11.097Z,13.45
2022-10-17T03:31:38.962Z,15.50
2022-10-17T03:34:07.526Z,13.98
2022-10-17T03:36:34.887Z,11.40
2022-10-17T03:39:02.450Z,12.45
2022-10-17T03:41:29.845Z,12.35
2022-10-17T03:43:57.149Z,9.38
2022-10-17T03:46:25.277Z,13.18
2022-10-17T03:48:54.275Z,11.38
2022-10-17T03:51:21.589Z,10.23
2022-10-17T03:53:53.992Z,13.48
2022-10-17T03:56:24.286Z,10.23
2022-10-17T03:58:58.002Z,9.32
2022-10-17T04:01:25.673Z,13.10
2022-10-17T04:03:55.239Z,12.23
2022-10-17T04:06:23.356Z,11.43
2022-10-17T04:08:51.076Z,15.75
2022-10-17T04:11:25.306Z,18.60
2022-10-17T04:13:57.199Z,13.40
2022-10-17T04:16:26.398Z,11.25
2022-10-17T04:19:00.331Z,16.02
2022-10-17T04:21:31.938Z,18.60
2022-10-17T04:24:04.583Z,13.75
2022-10-17T04:26:55.060Z,23.33
2022-10-17T04:29:26.134Z,15.50
2022-10-17T04:31:59.030Z,16.10
2022-10-17T04:34:35.010Z,27.88
2022-10-17T04:37:02.715Z,17.58
2022-10-17T04:39:30.250Z,18.70
2022-10-17T04:41:58.280Z,20.02
2022-10-17T04:44:25.726Z,20.40
2022-10-17T04:46:53.221Z,23.35
2022-10-17T04:49:20.647Z,18.00
2022-10-17T04:51:52.459Z,13.15
2022-10-17T04:54:26.463Z,17.60
2022-10-17T04:57:03.602Z,20.67
2022-10-17T04:59:31.568Z,21.13
2022-10-17T05:02:15.533Z,21.65
2022-10-17T05:04:46.625Z,21.38
2022-10-17T05:07:15.374Z,18.23
2022-10-17T05:09:59.004Z,23.27
2022-10-17T05:12:26.782Z,26.27
2022-10-17T05:14:54.567Z,25.13
2022-10-17T05:17:24.385Z,21.63
2022-10-17T05:19:51.688Z,28.30
2022-10-17T05:22:19.256Z,30.58
2022-10-17T05:24:46.747Z,20.70
2022-10-17T05:27:14.173Z,21.27
2022-10-17T05:29:41.609Z,24.15
2022-10-17T05:32:17.033Z,24.48
2022-10-17T05:34:44.768Z,22.58
2022-10-17T05:37:12.224Z,28.67
2022-10-17T05:39:40.516Z,20.33
2022-10-17T05:42:09.894Z,8.73
2022-10-17T05:44:37.427Z,19.08
2022-10-17T05:47:05.880Z,27.88
2022-10-17T05:49:44.959Z,29.00
2022-10-17T05:52:18.241Z,29.80
2022-10-17T05:54:56.951Z,10.65
2022-10-17T05:57:27.601Z,21.85
2022-10-17T05:59:55.306Z,19.63
2022-10-17T06:02:23.080Z,23.60
2022-10-17T06:04:50.712Z,31.00
2022-10-17T06:07:20.759Z,34.00
2022-10-17T06:09:49.907Z,35.65
2022-10-17T06:12:18.671Z,31.02
2022-10-17T06:14:46.796Z,25.95
2022-10-17T06:17:16.366Z,41.28
2022-10-17T06:19:47.891Z,32.65
2022-10-17T06:22:16.281Z,28.10
2022-10-17T06:24:44.167Z,32.28
2022-10-17T06:27:12.678Z,29.00
2022-10-17T06:29:41.433Z,28.77
2022-10-17T06:32:12.561Z,29.50
2022-10-17T06:34:43.484Z,24.90
2022-10-17T06:37:11.178Z,34.88
2022-10-17T06:39:40.347Z,25.77
2022-10-17T06:42:12.824Z,30.23
2022-10-17T06:44:49.336Z,37.03
2022-10-17T06:47:22.868Z,35.85
2022-10-17T06:49:52.779Z,35.83
2022-10-17T06:52:40.298Z,43.78
2022-10-17T06:55:26.109Z,38.53
2022-10-17T07:01:17.697Z,36.15
2022-10-17T07:03:50.397Z,28.63
2022-10-17T07:06:18.343Z,35.97
2022-10-17T07:08:46.881Z,27.83
2022-10-17T07:11:19.472Z,33.28
2022-10-17T07:13:49.869Z,27.02
2022-10-17T07:16:17.771Z,35.75
2022-10-17T07:18:52.591Z,39.08
2022-10-17T07:21:20.438Z,32.83
2022-10-17T07:23:47.957Z,43.67
2022-10-17T07:26:17.817Z,33.92
2022-10-17T07:28:47.108Z,36.47
2022-10-17T07:31:28.435Z,29.15
2022-10-17T07:33:55.915Z,38.60
2022-10-17T07:36:30.978Z,45.70
2022-10-17T07:39:00.295Z,39.20
2022-10-17T07:41:28.203Z,45.78
2022-10-17T07:43:56.637Z,39.92
2022-10-17T07:46:30.057Z,36.97
2022-10-17T07:48:57.587Z,32.30
2022-10-17T07:51:25.106Z,35.15
2022-10-17T07:53:52.553Z,64.43
2022-10-17T07:56:21.748Z,77.07
2022-10-17T07:58:49.089Z,58.50
2022-10-17T08:01:16.552Z,44.45
2022-10-17T08:03:48.958Z,28.02
2022-10-17T08:06:16.378Z,34.75
2022-10-17T08:08:44.113Z,30.98
2022-10-17T08:11:14.413Z,27.63
2022-10-17T08:13:42.297Z,28.10
2022-10-17T08:16:12.339Z,31.92
2022-10-17T08:18:41.501Z,33.25
2022-10-17T08:21:09.834Z,23.35
2022-10-17T08:23:37.961Z,40.90
2022-10-17T08:26:10.930Z,31.50
2022-10-17T08:28:42.712Z,36.17
2022-10-17T08:31:16.043Z,38.63
2022-10-17T08:33:43.428Z,35.05
2022-10-17T08:36:14.130Z,25.88
2022-10-17T08:38:43.892Z,44.95
2022-10-17T08:41:22.822Z,27.65
2022-10-17T08:44:27.507Z,32.03
2022-10-17T08:46:59.303Z,38.80
2022-10-17T08:49:42.392Z,31.60
2022-10-17T08:52:30.546Z,37.67
2022-10-17T08:54:58.188Z,31.75
2022-10-17T08:57:26.540Z,32.30
2022-10-17T08:59:55.441Z,22.88
2022-10-17T09:02:31.772Z,20.35
2022-10-17T09:05:36.152Z,15.50
2022-10-17T09:08:32.286Z,11.60
2022-10-17T09:11:21.387Z,24.25
2022-10-17T09:13:51.791Z,23.48
2022-10-17T09:16:55.210Z,23.88
2022-10-17T09:20:10.207Z,28.98
2022-10-17T09:23:06.092Z,23.92
2022-10-17T09:25:42.889Z,21.52
2022-10-17T09:28:14.360Z,17.77
2022-10-17T09:30:52.682Z,20.92
2022-10-17T09:33:35.657Z,17.40
2022-10-17T09:36:37.486Z,13.50
2022-10-17T09:39:18.009Z,14.02
2022-10-17T09:41:49.114Z,18.35
2022-10-17T09:44:20.895Z,12.27
2022-10-17T09:47:17.157Z,7.18
2022-10-17T09:49:46.818Z,13.75
2022-10-17T09:52:34.827Z,22.23
2022-10-17T09:55:20.581Z,18.23
2022-10-17T09:58:01.050Z,22.83
2022-10-17T10:00:38.507Z,16.10
2022-10-17T10:03:13.363Z,17.17
2022-10-17T10:05:44.404Z,17.20
2022-10-17T10:08:18.226Z,18.63
2022-10-17T10:10:46.105Z,10.60
2022-10-17T10:13:13.302Z,11.40
2022-10-17T10:15:42.554Z,8.75
2022-10-17T10:18:25.314Z,15.48
2022-10-17T10:21:09.520Z,12.60
2022-10-17T10:23:42.384Z,10.85
2022-10-17T10:26:21.829Z,9.68
2022-10-17T10:29:06.909Z,11.93
2022-10-17T10:31:37.904Z,7.65
2022-10-17T10:34:20.717Z,7.97
2022-10-17T10:37:00.036Z,11.23
2022-10-17T10:39:34.066Z,15.27
2022-10-17T10:42:03.596Z,10.48
2022-10-17T10:44:32.569Z,7.38
2022-10-17T10:47:17.229Z,6.90
2022-10-17T10:49:45.595Z,7.57
2022-10-17T10:52:22.807Z,7.47
2022-10-17T10:55:05.456Z,8.18
2022-10-17T10:57:37.263Z,8.43
2022-10-17T11:00:15.852Z,9.38
2022-10-17T11:02:54.141Z,6.63
2022-10-17T11:05:40.881Z,6.85
2022-10-17T11:08:14.806Z,14.75
2022-10-17T11:10:52.261Z,6.60
2022-10-17T11:13:43.906Z,7.07
2022-10-17T11:16:17.377Z,6.30
2022-10-17T12:00:32.488Z,9.48
2022-10-17T12:03:07.524Z,6.53
2022-10-17T12:08:33.744Z,7.10
2022-10-17T12:11:38.298Z,6.05
2022-10-17T12:14:45.391Z,10.40
2022-10-17T12:17:35.239Z,9.57
2022-10-17T12:20:19.059Z,8.05
2022-10-17T12:22:58.167Z,7.38
2022-10-17T12:25:32.983Z,10.13
2022-10-17T12:28:14.615Z,7.80
2022-10-17T12:31:13.871Z,9.18
2022-10-17T12:33:55.650Z,9.93
2022-10-17T12:36:23.093Z,13.70
2022-10-17T12:38:53.223Z,7.43
2022-10-17T12:41:39.208Z,6.38
2022-10-17T12:44:14.704Z,7.43
2022-10-17T12:46:58.230Z,11.10
2022-10-17T12:49:43.221Z,6.43
2022-10-17T12:52:27.650Z,8.10
2022-10-17T12:55:10.867Z,13.43
2022-10-17T12:57:51.071Z,9.10
2022-10-17T13:00:59.619Z,9.93
2022-10-17T13:03:35.411Z,9.90
2022-10-17T13:06:07.275Z,7.47
2022-10-17T13:08:39.414Z,9.68
2022-10-17T13:11:09.223Z,9.88
2022-10-17T13:13:39.469Z,11.48
2022-10-17T13:16:07.144Z,10.20
2022-10-17T13:18:34.996Z,10.60
2022-10-17T13:21:06.861Z,7.22
2022-10-17T13:23:37.205Z,13.93
2022-10-17T13:26:20.359Z,5.97
2022-10-17T13:29:06.554Z,12.35
2022-10-17T13:31:39.039Z,9.57
2022-10-17T13:34:16.953Z,10.40
2022-10-17T13:36:48.874Z,6.43
2022-10-17T13:39:23.217Z,7.00
2022-10-17T13:41:57.143Z,9.27
2022-10-17T13:44:29.403Z,6.00
2022-10-17T13:46:56.738Z,8.73
2022-10-17T13:49:34.194Z,8.65
2022-10-17T13:52:04.407Z,7.65
2022-10-17T13:54:40.472Z,14.32
2022-10-17T13:57:29.505Z,14.45
2022-10-17T14:00:10.053Z,7.95
2022-10-17T14:02:42.364Z,9.77
2022-10-17T14:05:17.887Z,12.73
2022-10-17T14:08:13.042Z,13.15
2022-10-17T14:10:44.607Z,11.52
2022-10-17T14:13:27.447Z,9.75
2022-10-17T14:15:59.305Z,8.35
2022-10-17T14:18:36.805Z,14.05
2022-10-17T14:24:14.412Z,9.30
2022-10-17T14:26:55.700Z,9.98
2022-10-17T14:29:25.370Z,7.82
2022-10-17T14:32:18.080Z,11.15
2022-10-17T14:34:46.850Z,11.50
2022-10-17T14:37:35.212Z,6.20
2022-10-17T14:40:06.031Z,10.40
2022-10-17T14:42:40.750Z,13.85
2022-10-17T14:45:13.425Z,11.85
2022-10-17T14:47:43.909Z,7.30
2022-10-17T14:50:11.687Z,13.30
2022-10-17T14:52:40.050Z,11.07
2022-10-17T14:55:28.255Z,11.23
2022-10-17T14:57:55.617Z,9.25
2022-10-17T15:00:24.616Z,8.30
2022-10-17T15:02:54.990Z,11.63
2022-10-17T15:05:23.720Z,11.35
2022-10-17T15:07:51.597Z,10.00
2022-10-17T15:10:35.988Z,15.75
2022-10-17T15:15:52.612Z,12.60
2022-10-17T15:18:20.027Z,14.82
2022-10-17T15:20:50.089Z,12.48
2022-10-17T15:23:23.538Z,21.23
2022-10-17T15:25:50.986Z,17.30
2022-10-17T15:28:18.378Z,14.15
2022-10-17T15:30:45.955Z,13.48
2022-10-17T15:33:13.410Z,15.15
2022-10-17T15:35:43.480Z,14.32
2022-10-17T15:38:18.465Z,15.25
2022-10-17T15:40:49.127Z,11.50
2022-10-17T15:43:19.855Z,17.55
2022-10-17T15:45:47.923Z,19.63
2022-10-17T15:48:31.626Z,16.67
2022-10-17T15:50:59.082Z,20.92
2022-10-17T15:53:26.704Z,24.85
2022-10-17T15:55:54.190Z,16.13
2022-10-17T15:58:21.596Z,16.73
2022-10-17T16:00:49.267Z,19.52
2022-10-17T16:03:16.771Z,17.70
2022-10-17T16:05:44.171Z,22.35
2022-10-17T16:08:11.560Z,22.50
2022-10-17T16:10:40.843Z,21.25
2022-10-17T16:13:20.755Z,25.65
2022-10-17T16:15:48.237Z,23.75
2022-10-17T16:18:15.649Z,20.88
2022-10-17T16:20:43.125Z,17.63
2022-10-17T16:23:12.852Z,17.25
2022-10-17T16:25:41.043Z,15.50
2022-10-17T16:28:08.810Z,17.60
2022-10-17T16:30:42.812Z,25.52
2022-10-17T16:33:10.704Z,20.35
2022-10-17T16:35:38.219Z,17.75
2022-10-17T16:38:08.010Z,22.42
2022-10-17T16:40:38.322Z,20.33
2022-10-17T16:43:05.967Z,30.05
2022-10-17T16:45:33.482Z,26.05
2022-10-17T16:48:01.536Z,29.20
2022-10-17T16:50:31.427Z,30.65
2022-10-17T16:52:58.868Z,28.60
2022-10-17T16:55:26.229Z,18.10
2022-10-17T16:57:53.909Z,26.85
2022-10-17T17:00:21.479Z,22.92
2022-10-17T17:02:49.330Z,22.88
2022-10-17T17:05:16.751Z,23.88
2022-10-17T17:07:44.273Z,31.20
2022-10-17T17:10:11.587Z,27.45
2022-10-17T17:12:39.053Z,27.92
2022-10-17T17:15:06.583Z,30.42
2022-10-17T17:17:49.701Z,28.33
2022-10-17T17:20:19.785Z,25.98
2022-10-17T17:22:47.157Z,31.50
2022-10-17T17:25:14.731Z,38.92
2022-10-17T17:27:42.184Z,29.10
2022-10-17T17:30:10.048Z,33.85
2022-10-17T17:32:37.503Z,33.90
2022-10-17T17:35:05.259Z,32.78
2022-10-17T17:37:32.790Z,30.38
2022-10-17T17:40:00.490Z,32.95
2022-10-17T17:42:27.948Z,35.90
2022-10-17T17:44:55.398Z,31.23
2022-10-17T17:47:22.732Z,32.38
2022-10-17T17:49:50.179Z,38.63
2022-10-17T17:52:17.547Z,36.50
2022-10-17T17:54:46.158Z,33.53
2022-10-17T17:57:13.676Z,41.55
2022-10-17T17:59:41.722Z,34.30
2022-10-17T18:02:11.319Z,42.88
2022-10-17T18:04:38.831Z,34.33
2022-10-17T18:07:06.241Z,31.83
2022-10-17T18:09:33.804Z,23.80
2022-10-17T18:12:01.575Z,33.03
2022-10-17T18:14:28.980Z,21.30
2022-10-17T18:16:56.635Z,24.58
2022-10-17T18:19:24.158Z,24.67
2022-10-17T18:21:51.654Z,32.72
2022-10-17T18:24:19.427Z,25.92
2022-10-17T18:26:46.857Z,33.38
2022-10-17T18:29:14.365Z,30.08
2022-10-17T18:31:41.829Z,29.80
2022-10-17T18:34:10.026Z,25.55
2022-10-17T18:36:37.987Z,23.63
2022-10-17T18:39:05.864Z,25.00
2022-10-17T18:41:34.131Z,22.77
2022-10-17T18:44:03.213Z,23.45
2022-10-17T18:46:35.911Z,21.67
2022-10-17T18:49:03.744Z,21.10
2022-10-17T18:51:31.284Z,25.70
2022-10-17T18:53:59.401Z,26.30
2022-10-17T18:56:30.275Z,19.23
2022-10-17T18:58:58.139Z,24.35
2022-10-17T19:01:27.619Z,25.15
2022-10-17T19:03:57.609Z,22.88
2022-10-17T19:06:32.110Z,23.30
2022-10-17T19:09:01.521Z,22.80
2022-10-17T19:11:31.074Z,21.15
2022-10-17T19:14:01.099Z,26.35
2022-10-17T19:16:33.614Z,17.52
2022-10-17T19:19:07.164Z,21.13
2022-10-17T19:21:35.146Z,25.23
2022-10-17T19:24:05.527Z,27.17
2022-10-17T19:26:35.572Z,24.70
2022-10-17T19:29:04.385Z,22.13
2022-10-17T19:31:33.030Z,25.85
2022-10-17T19:34:01.145Z,17.10
2022-10-17T19:36:33.315Z,23.27
2022-10-17T19:39:07.561Z,26.63
2022-10-17T19:41:36.681Z,25.77
2022-10-17T19:44:04.232Z,24.77
2022-10-17T19:46:32.430Z,25.60
2022-10-17T19:49:00.437Z,23.05
2022-10-17T19:51:29.357Z,24.92
2022-10-17T19:54:00.621Z,19.92
2022-10-17T19:56:29.993Z,22.73
2022-10-17T19:58:58.792Z,25.20
2022-10-17T20:01:34.083Z,26.05
2022-10-17T20:04:02.076Z,45.85
2022-10-17T20:06:29.532Z,29.95
2022-10-17T20:08:57.185Z,47.40
2022-10-17T20:11:27.727Z,25.88
2022-10-17T20:13:55.987Z,30.80
2022-10-17T20:18:56.495Z,70.82
2022-10-17T20:21:27.618Z,21.42
2022-10-17T20:23:56.581Z,17.15
2022-10-17T20:26:37.453Z,25.42
2022-10-17T20:29:09.051Z,18.88
2022-10-17T20:31:36.995Z,23.48
2022-10-17T20:34:04.466Z,24.50
2022-10-17T20:36:32.646Z,45.25
2022-10-17T20:39:00.737Z,28.40
2022-10-17T20:41:28.028Z,15.85
2022-10-17T20:43:56.207Z,28.23
2022-10-17T20:46:36.427Z,21.77
2022-10-17T20:49:09.064Z,24.45
2022-10-17T20:51:36.796Z,21.83
2022-10-17T20:54:04.963Z,26.95
2022-10-17T20:56:33.758Z,23.80
2022-10-17T20:59:04.265Z,28.98
2022-10-17T21:01:33.530Z,31.30
2022-10-17T21:04:21.353Z,24.67
2022-10-17T21:06:49.002Z,24.20
2022-10-17T21:09:16.451Z,19.58
2022-10-17T21:11:44.408Z,20.55
2022-10-17T21:14:12.631Z,27.23
2022-10-17T21:16:41.533Z,21.70
2022-10-17T21:19:12.346Z,20.85
2022-10-17T21:21:44.845Z,23.73
2022-10-17T21:24:17.799Z,24.08
2022-10-17T21:26:46.798Z,29.75
2022-10-17T21:29:14.825Z,25.92
2022-10-17T21:31:44.991Z,22.58
2022-10-17T21:34:26.712Z,26.67
2022-10-17T21:36:54.052Z,20.60
2022-10-17T21:39:22.245Z,23.83
2022-10-17T21:41:49.564Z,30.48
2022-10-17T21:44:19.285Z,40.00
2022-10-17T21:46:47.775Z,31.73
2022-10-17T21:49:17.511Z,32.00
2022-10-17T21:51:45.651Z,35.25
2022-10-17T21:54:13.010Z,30.25
2022-10-17T21:56:40.986Z,33.80
2022-10-17T21:59:08.928Z,22.40
2022-10-17T22:01:39.539Z,25.73
2022-10-17T22:04:09.116Z,24.77
2022-10-17T22:06:40.686Z,27.23
2022-10-17T22:09:20.971Z,27.45
2022-10-17T22:11:50.931Z,24.52
2022-10-17T22:14:20.122Z,34.40
2022-10-17T22:16:48.346Z,26.50
2022-10-17T22:19:18.905Z,36.08
2022-10-17T22:21:46.727Z,31.90
2022-10-17T22:24:15.803Z,34.47
2022-10-17T22:26:44.707Z,40.53
2022-10-17T22:29:12.960Z,29.55
2022-10-17T22:31:42.929Z,37.10
2022-10-17T22:34:12.740Z,24.98
2022-10-17T22:36:40.956Z,26.80
2022-10-17T22:39:08.942Z,19.13
2022-10-17T22:41:36.296Z,18.48
2022-10-17T22:44:03.929Z,30.75
2022-10-17T22:46:31.199Z,24.35
2022-10-17T22:48:58.663Z,20.58
2022-10-17T22:51:26.023Z,22.08
2022-10-17T22:53:53.282Z,23.73
2022-10-17T22:56:21.744Z,20.38
2022-10-17T22:58:48.970Z,35.40
2022-10-17T23:01:19.549Z,29.75
2022-10-17T23:03:47.713Z,31.20
2022-10-17T23:06:15.441Z,27.70
2022-10-17T23:08:43.978Z,28.40
2022-10-17T23:11:11.886Z,30.63
2022-10-17T23:13:41.108Z,33.45
2022-10-17T23:16:09.518Z,26.75
2022-10-17T23:18:38.084Z,27.38
2022-10-17T23:21:06.084Z,41.35
2022-10-17T23:23:33.622Z,33.78
2022-10-17T23:26:10.552Z,30.92
2022-10-17T23:28:38.877Z,27.92
2022-10-17T23:31:18.656Z,28.35
2022-10-17T23:33:49.101Z,26.42
2022-10-17T23:36:19.728Z,30.95
2022-10-17T23:38:48.045Z,25.55
2022-10-17T23:41:16.148Z,28.02
2022-10-17T23:43:44.380Z,29.20
2022-10-17T23:46:14.202Z,31.95
2022-10-17T23:48:41.925Z,28.75
2022-10-17T23:51:10.695Z,24.98
2022-10-17T23:53:39.305Z,18.25
2022-10-17T23:56:08.077Z,24.83
2022-10-17T23:58:35.955Z,28.95
